Time;durP1;ratioP1;P1;durP2;ratioP2;P2;SDS_P1;SDS_P2;PMS_P1;PMS_P2;Temp;Humidity;BMP_temperature;BMP_pressure;BME280_temperature;BME280_humidity;BME280_pressure;Samples;Min_cycle;Max_cycle;Signal;HPM_P1;HPM_P2
2021/10/16 00:00:31;;;;;;;11.25;5.00;;;;;;;8.25;100.00;99156.16;5011878;28;20057;-71
2021/10/16 00:02:57;;;;;;;8.07;4.50;;;;;;;8.23;100.00;99161.75;5014129;28;20029;-70
2021/10/16 00:05:22;;;;;;;8.20;4.90;;;;;;;8.24;100.00;99167.97;5011161;28;20041;-71
2021/10/16 00:07:47;;;;;;;7.88;5.00;;;;;;;8.03;100.00;99141.69;5013911;28;20069;-71
2021/10/16 00:10:13;;;;;;;10.10;5.55;;;;;;;8.20;100.00;99170.22;5013737;28;20036;-70
2021/10/16 00:12:38;;;;;;;7.72;5.15;;;;;;;8.19;100.00;99167.69;5012563;28;20487;-71
2021/10/16 00:15:05;;;;;;;11.82;5.50;;;;;;;8.38;100.00;99169.06;5012721;28;20022;-69
2021/10/16 00:17:30;;;;;;;11.10;5.50;;;;;;;8.39;100.00;99174.31;5015051;28;20034;-69
2021/10/16 00:19:56;;;;;;;12.18;5.63;;;;;;;8.34;100.00;99176.69;5014002;28;20040;-69
2021/10/16 00:22:21;;;;;;;10.27;6.18;;;;;;;8.25;100.00;99177.75;5016150;28;20105;-69
2021/10/16 00:24:47;;;;;;;11.70;5.88;;;;;;;8.07;100.00;99149.25;5015184;28;20030;-69
2021/10/16 00:27:13;;;;;;;9.07;5.32;;;;;;;8.25;100.00;99185.81;5015614;28;20112;-68
2021/10/16 00:29:38;;;;;;;8.75;5.35;;;;;;;8.15;100.00;99171.75;5015581;28;20053;-68
2021/10/16 00:32:04;;;;;;;10.50;6.43;;;;;;;7.97;100.00;99167.50;5013561;28;20060;-69
2021/10/16 00:34:29;;;;;;;14.68;6.68;;;;;;;8.01;100.00;99176.88;5014788;28;20469;-69
2021/10/16 00:36:54;;;;;;;14.25;6.65;;;;;;;7.97;100.00;99177.44;5010351;28;20485;-71
2021/10/16 00:39:19;;;;;;;13.50;7.05;;;;;;;7.82;100.00;99161.19;5002148;28;20057;-71
2021/10/16 00:41:45;;;;;;;13.15;6.00;;;;;;;7.88;100.00;99177.44;5012120;28;20127;-69
2021/10/16 00:44:11;;;;;;;9.13;6.05;;;;;;;7.93;100.00;99185.00;5016324;28;20484;-70
2021/10/16 00:46:36;;;;;;;9.93;6.55;;;;;;;7.94;100.00;99186.72;5015879;28;20026;-68
2021/10/16 00:49:02;;;;;;;10.73;6.13;;;;;;;7.80;100.00;99138.97;5015595;28;20025;-68
2021/10/16 00:51:27;;;;;;;9.75;5.88;;;;;;;7.87;100.00;99150.72;5015302;28;20029;-67
2021/10/16 00:53:52;;;;;;;10.15;5.55;;;;;;;7.99;100.00;99162.78;5015827;28;20034;-70
2021/10/16 00:56:17;;;;;;;11.30;6.47;;;;;;;7.93;100.00;99146.47;5018074;28;20057;-71
2021/10/16 00:58:44;;;;;;;9.35;5.95;;;;;;;8.05;100.00;99163.91;5013365;28;20061;-69
2021/10/16 01:01:09;;;;;;;8.68;5.65;;;;;;;8.09;100.00;99165.22;5014530;28;20032;-68
2021/10/16 01:03:34;;;;;;;8.45;5.53;;;;;;;7.96;100.00;99160.41;5014782;28;20109;-68
2021/10/16 01:05:59;;;;;;;8.60;5.70;;;;;;;7.95;100.00;99160.59;5014950;28;20065;-69
2021/10/16 01:08:25;;;;;;;11.73;5.88;;;;;;;7.86;100.00;99138.28;5014895;28;20026;-68
2021/10/16 01:10:50;;;;;;;10.05;5.57;;;;;;;7.97;100.00;99142.41;5015030;28;20365;-68
2021/10/16 01:13:16;;;;;;;8.70;5.47;;;;;;;8.01;100.00;99154.50;5015187;28;20057;-69
2021/10/16 01:15:42;;;;;;;9.05;5.55;;;;;;;7.97;100.00;99148.63;5014396;28;20472;-70
2021/10/16 01:18:08;;;;;;;10.30;5.95;;;;;;;8.03;100.00;99156.00;5013504;28;20455;-69
2021/10/16 01:20:38;;;;;;;12.02;6.13;;;;;;;8.00;100.00;99147.44;5014647;28;20026;-71
2021/10/16 01:23:03;;;;;;;9.32;5.78;;;;;;;7.96;100.00;99160.41;5016705;28;20029;-71
2021/10/16 01:25:29;;;;;;;8.52;5.72;;;;;;;7.86;100.00;99151.75;5014948;28;20036;-68
2021/10/16 01:27:55;;;;;;;9.32;5.82;;;;;;;7.80;100.00;99157.81;5013186;28;20769;-69
2021/10/16 01:30:23;;;;;;;9.70;5.72;;;;;;;7.73;100.00;99151.44;5014594;28;20017;-67
2021/10/16 01:32:49;;;;;;;16.90;6.38;;;;;;;7.54;100.00;99120.41;5014505;28;20025;-67
2021/10/16 01:35:15;;;;;;;9.82;5.47;;;;;;;7.69;100.00;99154.50;5014362;28;20036;-68
2021/10/16 01:37:43;;;;;;;9.00;5.82;;;;;;;7.67;100.00;99151.13;5014716;28;20021;-68
2021/10/16 01:40:10;;;;;;;8.48;6.03;;;;;;;7.76;100.00;99135.78;5014096;28;20026;-69
2021/10/16 01:42:36;;;;;;;11.20;6.18;;;;;;;7.79;100.00;99118.44;5013314;28;20029;-69
2021/10/16 01:45:03;;;;;;;9.40;6.13;;;;;;;7.52;100.00;99106.28;5001072;28;20171;-69
2021/10/16 01:47:28;;;;;;;9.65;6.65;;;;;;;7.54;100.00;99115.88;5013175;28;20030;-69
2021/10/16 01:49:56;;;;;;;12.07;6.47;;;;;;;7.60;100.00;99149.34;5013267;28;20025;-69
2021/10/16 01:52:22;;;;;;;9.13;6.55;;;;;;;7.51;100.00;99132.38;5029585;28;20438;-69
2021/10/16 01:54:47;;;;;;;9.57;6.18;;;;;;;7.44;100.00;99143.03;5014029;28;20111;-69
2021/10/16 01:57:13;;;;;;;12.63;7.40;;;;;;;7.42;100.00;99147.72;5013954;28;20148;-67
2021/10/16 01:59:38;;;;;;;13.93;7.25;;;;;;;7.37;100.00;99144.72;5014023;28;20104;-68
2021/10/16 02:02:04;;;;;;;15.00;6.90;;;;;;;7.28;100.00;99150.31;5013634;28;20534;-71
2021/10/16 02:04:29;;;;;;;12.45;6.53;;;;;;;7.23;100.00;99149.00;5013798;28;20105;-71
2021/10/16 02:06:54;;;;;;;10.32;7.00;;;;;;;7.18;100.00;99137.06;5032161;28;20057;-70
2021/10/16 02:09:20;;;;;;;9.50;6.20;;;;;;;7.25;100.00;99152.31;5014237;28;20044;-68
2021/10/16 02:11:45;;;;;;;11.48;6.35;;;;;;;7.23;100.00;99156.19;5014124;28;20025;-69
2021/10/16 02:14:10;;;;;;;8.95;5.95;;;;;;;7.18;100.00;99154.06;5013519;28;20101;-69
2021/10/16 02:16:36;;;;;;;10.93;6.25;;;;;;;7.10;100.00;99134.38;5013025;28;20021;-69
2021/10/16 02:19:02;;;;;;;10.27;6.10;;;;;;;7.37;100.00;99158.19;5011595;28;20553;-68
2021/10/16 02:21:28;;;;;;;10.82;6.82;;;;;;;7.20;100.00;99130.50;5013563;28;20040;-68
2021/10/16 02:23:53;;;;;;;10.07;7.00;;;;;;;7.51;100.00;99159.28;5013893;28;20025;-69
2021/10/16 02:26:19;;;;;;;16.73;9.63;;;;;;;7.54;100.00;99132.03;5013423;28;20026;-67
2021/10/16 02:28:45;;;;;;;22.92;12.65;;;;;;;7.36;100.00;99142.19;5013571;28;20040;-69
2021/10/16 02:31:10;;;;;;;25.70;13.85;;;;;;;7.38;100.00;99159.03;5013687;28;20022;-67
2021/10/16 02:33:35;;;;;;;26.63;12.73;;;;;;;7.36;100.00;99144.88;5013073;28;20450;-68
2021/10/16 02:36:01;;;;;;;13.02;7.57;;;;;;;7.38;100.00;99156.31;5013652;28;20076;-69
2021/10/16 02:38:26;;;;;;;12.73;7.75;;;;;;;7.35;100.00;99146.75;5011230;28;20029;-69
2021/10/16 02:40:51;;;;;;;12.10;7.18;;;;;;;7.32;100.00;99162.41;5012546;28;20120;-71
2021/10/16 02:43:17;;;;;;;12.15;5.80;;;;;;;7.29;100.00;99168.97;5012655;28;20025;-69
2021/10/16 02:45:42;;;;;;;14.40;5.28;;;;;;;7.18;100.00;99145.97;5013142;28;20420;-70
2021/10/16 02:48:07;;;;;;;12.40;5.47;;;;;;;7.12;100.00;99151.19;5004844;28;20444;-69
2021/10/16 02:50:33;;;;;;;11.85;6.18;;;;;;;7.06;100.00;99147.34;5012628;28;20041;-69
2021/10/16 02:52:58;;;;;;;10.35;5.95;;;;;;;6.98;100.00;99145.50;5013080;28;20030;-69
2021/10/16 02:55:23;;;;;;;12.25;6.25;;;;;;;6.98;100.00;99155.44;5012590;28;20476;-69
2021/10/16 02:57:49;;;;;;;13.88;6.05;;;;;;;6.89;100.00;99137.63;5012748;28;20952;-68
2021/10/16 03:00:14;;;;;;;7.45;5.28;;;;;;;6.99;100.00;99151.72;5011367;28;20384;-69
2021/10/16 03:02:40;;;;;;;11.95;5.90;;;;;;;7.03;100.00;99155.78;5011348;28;20026;-68
2021/10/16 03:05:06;;;;;;;11.10;6.65;;;;;;;7.07;100.00;99164.31;5013392;28;20021;-69
2021/10/16 03:07:31;;;;;;;12.65;5.90;;;;;;;7.08;100.00;99153.41;5012765;28;20022;-69
2021/10/16 03:09:57;;;;;;;16.30;8.30;;;;;;;7.05;100.00;99152.88;5012490;28;20108;-69
2021/10/16 03:12:23;;;;;;;43.72;17.67;;;;;;;6.84;100.00;99140.00;5013095;28;20468;-68
2021/10/16 03:14:48;;;;;;;35.63;14.60;;;;;;;6.97;100.00;99169.91;5012598;28;20103;-71
2021/10/16 03:17:14;;;;;;;19.40;10.98;;;;;;;6.96;100.00;99160.16;5012870;28;20491;-71
2021/10/16 03:19:39;;;;;;;16.75;8.75;;;;;;;6.97;100.00;99156.47;5010842;28;20686;-67
2021/10/16 03:22:05;;;;;;;10.48;6.40;;;;;;;6.97;100.00;99148.41;5012984;28;20104;-69
2021/10/16 03:24:31;;;;;;;10.20;5.97;;;;;;;6.80;100.00;99131.44;5012893;28;20030;-69
2021/10/16 03:26:56;;;;;;;14.05;6.32;;;;;;;6.85;100.00;99158.66;5012436;28;20104;-68
2021/10/16 03:29:21;;;;;;;13.07;7.07;;;;;;;6.76;100.00;99152.47;5011681;28;20424;-69
2021/10/16 03:31:47;;;;;;;13.07;7.70;;;;;;;6.74;100.00;99156.34;5011794;28;20034;-69
2021/10/16 03:34:12;;;;;;;10.02;6.10;;;;;;;6.70;100.00;99161.19;5011655;28;20117;-68
2021/10/16 03:36:38;;;;;;;10.65;6.32;;;;;;;6.66;100.00;99156.34;5012462;28;20022;-69
2021/10/16 03:39:04;;;;;;;9.35;5.80;;;;;;;6.62;100.00;99150.44;5011775;28;20030;-69
2021/10/16 03:41:30;;;;;;;9.45;5.72;;;;;;;6.56;100.00;99149.28;5012589;28;20044;-69
2021/10/16 03:43:55;;;;;;;9.48;5.50;;;;;;;6.48;100.00;99140.41;5011606;28;20038;-69
2021/10/16 03:46:20;;;;;;;12.80;6.53;;;;;;;6.35;100.00;99138.22;5011096;28;20026;-69
2021/10/16 03:48:46;;;;;;;9.02;5.85;;;;;;;6.37;100.00;99138.88;5011340;28;20092;-71
2021/10/16 03:51:11;;;;;;;12.07;7.43;;;;;;;6.35;100.00;99140.91;5010882;28;20034;-71
2021/10/16 03:53:36;;;;;;;12.05;6.30;;;;;;;6.31;100.00;99145.78;5012324;28;20475;-67
2021/10/16 03:56:02;;;;;;;10.85;5.97;;;;;;;6.20;100.00;99119.22;5012300;28;20076;-68
2021/10/16 03:58:27;;;;;;;11.32;6.43;;;;;;;6.29;100.00;99139.72;5012438;28;20108;-70
2021/10/16 04:00:59;;;;;;;10.95;6.10;;;;;;;6.30;100.00;99144.06;5007503;28;20053;-73
2021/10/16 04:03:24;;;;;;;12.80;6.53;;;;;;;6.25;100.00;99124.94;5031913;22;20124;-75
2021/10/16 04:05:49;;;;;;;10.27;6.68;;;;;;;6.40;100.00;99143.91;5028806;28;20071;-75
2021/10/16 04:08:14;;;;;;;10.30;6.45;;;;;;;6.39;100.00;99138.69;5028126;28;20125;-74
2021/10/16 04:10:40;;;;;;;11.45;6.55;;;;;;;6.51;100.00;99135.50;5024355;28;20483;-75
2021/10/16 04:13:05;;;;;;;12.02;7.00;;;;;;;6.50;100.00;99135.69;5014258;28;20025;-74
2021/10/16 04:15:30;;;;;;;10.15;6.60;;;;;;;6.46;100.00;99131.66;5002545;28;20061;-74
2021/10/16 04:17:56;;;;;;;10.93;6.60;;;;;;;6.61;100.00;99151.47;5010084;28;20041;-74
2021/10/16 04:20:21;;;;;;;12.73;7.07;;;;;;;6.59;100.00;99145.41;5009480;28;20070;-74
2021/10/16 04:22:47;;;;;;;10.40;6.22;;;;;;;6.57;100.00;99144.75;5017063;28;20029;-74
2021/10/16 04:25:13;;;;;;;11.05;6.75;;;;;;;6.55;100.00;99144.09;5033368;28;20025;-74
2021/10/16 04:27:38;;;;;;;9.95;6.03;;;;;;;6.64;100.00;99159.19;5034229;28;20092;-74
2021/10/16 04:30:05;;;;;;;10.38;6.63;;;;;;;6.65;100.00;99168.94;5031824;28;20387;-74
2021/10/16 04:32:35;;;;;;;9.55;6.68;;;;;;;6.69;100.00;99161.38;5033605;28;20552;-75
2021/10/16 04:35:04;;;;;;;11.00;6.72;;;;;;;6.61;100.00;99156.84;5031149;28;20065;-73
2021/10/16 04:37:29;;;;;;;15.02;6.95;;;;;;;6.72;100.00;99163.72;5033208;28;20085;-74
2021/10/16 04:39:55;;;;;;;9.68;6.32;;;;;;;6.74;100.00;99162.53;5030294;28;20068;-74
2021/10/16 04:42:20;;;;;;;9.52;6.57;;;;;;;6.73;100.00;99166.25;5032642;28;20034;-73
2021/10/16 04:44:45;;;;;;;12.50;7.15;;;;;;;6.77;100.00;99166.75;5031097;28;20049;-75
2021/10/16 04:47:11;;;;;;;10.45;6.53;;;;;;;6.97;100.00;99167.22;5012638;28;20365;-73
2021/10/16 04:49:36;;;;;;;10.27;6.43;;;;;;;7.07;100.00;99167.84;5005354;28;20541;-74
2021/10/16 04:52:04;;;;;;;10.30;6.72;;;;;;;7.08;100.00;99156.09;5014943;28;20030;-75
2021/10/16 04:54:29;;;;;;;9.63;6.40;;;;;;;7.09;100.00;99143.47;5011236;28;20414;-75
2021/10/16 04:56:54;;;;;;;17.08;6.25;;;;;;;7.05;100.00;99158.28;5007086;28;20034;-75
2021/10/16 04:59:19;;;;;;;9.30;5.47;;;;;;;6.97;100.00;99161.84;5007387;28;20022;-73
2021/10/16 05:01:45;;;;;;;8.32;5.00;;;;;;;6.89;100.00;99164.53;5012583;28;20136;-74
2021/10/16 05:04:10;;;;;;;10.65;6.32;;;;;;;6.84;100.00;99173.13;5015725;28;20073;-72
2021/10/16 05:06:35;;;;;;;10.02;6.10;;;;;;;6.82;100.00;99156.31;5016182;28;20021;-75
2021/10/16 05:09:01;;;;;;;11.25;6.00;;;;;;;6.84;100.00;99148.06;5015191;28;20029;-75
2021/10/16 05:11:26;;;;;;;10.55;6.57;;;;;;;6.79;100.00;99153.97;5015835;28;20029;-75
2021/10/16 05:13:51;;;;;;;15.57;7.35;;;;;;;6.87;100.00;99163.88;5015488;28;20022;-76
2021/10/16 05:16:17;;;;;;;10.40;6.78;;;;;;;6.74;100.00;99148.25;5014316;28;20026;-74
2021/10/16 05:18:42;;;;;;;12.88;6.65;;;;;;;6.87;100.00;99170.09;5015547;28;20166;-74
2021/10/16 05:21:09;;;;;;;10.30;6.22;;;;;;;6.80;100.00;99172.59;5015371;28;20467;-73
2021/10/16 05:23:34;;;;;;;11.20;6.45;;;;;;;6.70;100.00;99154.97;5015188;28;20075;-74
2021/10/16 05:26:00;;;;;;;9.00;5.47;;;;;;;6.65;100.00;99157.34;5018831;28;20109;-76
2021/10/16 05:28:25;;;;;;;8.65;5.75;;;;;;;6.85;100.00;99169.41;5015762;28;20053;-76
2021/10/16 05:30:50;;;;;;;11.00;5.30;;;;;;;6.76;100.00;99168.59;5015191;28;20025;-77
2021/10/16 05:33:16;;;;;;;9.55;5.90;;;;;;;6.76;100.00;99170.47;5021596;28;20369;-69
2021/10/16 05:35:44;;;;;;;10.05;6.10;;;;;;;6.62;100.00;99150.44;5035756;28;20045;-69
2021/10/16 05:38:18;;;;;;;9.65;5.95;;;;;;;6.68;100.00;99157.84;5034144;28;20390;-69
2021/10/16 05:40:43;;;;;;;8.85;5.80;;;;;;;6.88;100.00;99179.81;5036287;28;20471;-69
2021/10/16 05:43:08;;;;;;;7.90;5.53;;;;;;;6.84;100.00;99172.25;5034660;28;20034;-70
2021/10/16 05:45:34;;;;;;;9.07;5.57;;;;;;;6.89;100.00;99181.53;5028220;28;20026;-70
2021/10/16 05:47:59;;;;;;;12.32;5.75;;;;;;;6.89;100.00;99183.34;5014762;28;20037;-69
2021/10/16 05:50:25;;;;;;;9.00;6.00;;;;;;;6.85;100.00;99188.25;5014610;28;20030;-69
2021/10/16 05:52:50;;;;;;;9.05;5.78;;;;;;;6.93;100.00;99187.41;5011079;28;20052;-70
2021/10/16 05:55:16;;;;;;;9.32;5.75;;;;;;;6.95;100.00;99188.91;5014288;28;20117;-69
2021/10/16 05:57:41;;;;;;;10.40;5.70;;;;;;;6.88;100.00;99171.75;5011101;28;20025;-69
2021/10/16 06:00:07;;;;;;;9.60;5.80;;;;;;;7.02;100.00;99197.13;5010834;28;20034;-70
2021/10/16 06:02:32;;;;;;;8.07;5.55;;;;;;;7.03;100.00;99193.44;5008861;28;20458;-68
2021/10/16 06:04:58;;;;;;;8.43;5.25;;;;;;;7.05;100.00;99179.78;5011295;28;20072;-68
2021/10/16 06:07:23;;;;;;;10.48;5.88;;;;;;;7.09;100.00;99181.97;5014279;28;20379;-68
2021/10/16 06:09:48;;;;;;;10.88;5.97;;;;;;;7.18;100.00;99191.72;5012622;28;20025;-68
2021/10/16 06:12:14;;;;;;;11.75;5.95;;;;;;;7.32;100.00;99208.16;5013084;28;20026;-68
2021/10/16 06:14:39;;;;;;;9.27;6.15;;;;;;;7.33;100.00;99207.16;5012598;28;20026;-68
2021/10/16 06:17:04;;;;;;;11.07;6.03;;;;;;;7.39;100.00;99214.56;5011669;28;20021;-67
2021/10/16 06:19:30;;;;;;;10.32;6.53;;;;;;;7.32;100.00;99195.53;5010604;28;20033;-67
2021/10/16 06:21:56;;;;;;;8.10;5.63;;;;;;;7.35;100.00;99192.50;5009708;28;20113;-68
2021/10/16 06:24:21;;;;;;;9.45;6.28;;;;;;;7.45;100.00;99206.59;5009959;28;20523;-68
2021/10/16 06:26:47;;;;;;;13.80;7.20;;;;;;;7.51;100.00;99210.44;5011307;28;20045;-69
2021/10/16 06:29:12;;;;;;;10.98;6.28;;;;;;;7.57;100.00;99217.00;5009519;28;20032;-69
2021/10/16 06:31:38;;;;;;;9.60;6.10;;;;;;;7.64;100.00;99215.28;5011076;28;20399;-69
2021/10/16 06:34:03;;;;;;;9.23;6.05;;;;;;;7.69;100.00;99221.81;5009179;28;20152;-67
2021/10/16 06:36:28;;;;;;;11.52;6.53;;;;;;;7.74;100.00;99228.56;5010548;28;20068;-68
2021/10/16 06:38:54;;;;;;;17.95;6.75;;;;;;;7.75;100.00;99227.53;5011190;28;20040;-69
2021/10/16 06:41:19;;;;;;;13.13;6.38;;;;;;;7.77;100.00;99212.03;5007360;28;20491;-69
2021/10/16 06:43:44;;;;;;;9.15;6.13;;;;;;;7.84;100.00;99226.50;5008161;28;20030;-69
2021/10/16 06:46:10;;;;;;;10.80;6.78;;;;;;;7.89;100.00;99221.41;5010201;28;20025;-68
2021/10/16 06:48:35;;;;;;;10.65;6.18;;;;;;;7.95;100.00;99211.78;5010847;28;20022;-68
2021/10/16 06:51:00;;;;;;;11.82;6.78;;;;;;;7.98;100.00;99224.91;5011551;28;20029;-67
2021/10/16 06:53:26;;;;;;;10.07;7.15;;;;;;;7.99;100.00;99230.13;5009819;28;20028;-71
2021/10/16 06:55:51;;;;;;;12.38;7.90;;;;;;;8.01;100.00;99229.94;5010275;28;20029;-71
2021/10/16 06:58:16;;;;;;;12.75;7.80;;;;;;;8.00;100.00;99222.88;5011555;28;20030;-71
2021/10/16 07:00:42;;;;;;;13.27;8.95;;;;;;;8.06;100.00;99219.47;5011184;28;20037;-77
2021/10/16 07:03:08;;;;;;;12.13;8.13;;;;;;;8.29;100.00;99222.19;5012952;28;20048;-76
2021/10/16 07:05:33;;;;;;;13.35;8.45;;;;;;;8.51;100.00;99224.13;5012872;28;20022;-77
2021/10/16 07:07:59;;;;;;;12.07;7.68;;;;;;;8.75;99.33;99233.00;5003644;28;20100;-77
2021/10/16 07:10:24;;;;;;;12.13;7.90;;;;;;;9.06;99.02;99234.78;5007462;28;20140;-75
2021/10/16 07:12:50;;;;;;;18.30;9.15;;;;;;;9.20;97.77;99239.38;5006730;28;20058;-69
2021/10/16 07:15:15;;;;;;;17.40;10.52;;;;;;;9.20;96.51;99229.41;5012082;28;20022;-75
2021/10/16 07:17:40;;;;;;;18.20;11.38;;;;;;;9.12;97.11;99223.25;5011996;28;20036;-74
2021/10/16 07:20:06;;;;;;;19.08;10.90;;;;;;;9.48;96.69;99241.44;5010474;28;20021;-74
2021/10/16 07:22:32;;;;;;;21.25;11.27;;;;;;;9.74;95.34;99244.50;5003738;28;20532;-66
2021/10/16 07:24:57;;;;;;;16.95;10.75;;;;;;;10.06;92.85;99235.16;5011327;28;20073;-74
2021/10/16 07:27:22;;;;;;;17.10;10.77;;;;;;;10.22;89.12;99225.16;5006487;28;20025;-74
2021/10/16 07:29:48;;;;;;;13.93;10.02;;;;;;;10.53;87.87;99235.69;5001698;28;20097;-75
2021/10/16 07:32:15;;;;;;;13.55;8.80;;;;;;;10.71;88.04;99230.66;5025536;28;20053;-75
2021/10/16 07:34:41;;;;;;;13.95;7.95;;;;;;;10.38;87.61;99243.88;5013202;28;20026;-73
2021/10/16 07:37:06;;;;;;;10.95;7.25;;;;;;;10.33;88.97;99262.56;5013315;28;20014;-74
2021/10/16 07:39:31;;;;;;;11.35;7.40;;;;;;;10.27;88.07;99249.75;5027762;28;20022;-74
2021/10/16 07:41:57;;;;;;;13.18;8.40;;;;;;;10.24;87.93;99256.41;5011306;28;20055;-74
2021/10/16 07:44:22;;;;;;;11.10;7.53;;;;;;;10.69;86.17;99259.81;5013252;28;20057;-73
2021/10/16 07:46:47;;;;;;;12.77;9.02;;;;;;;10.76;84.94;99249.03;5011073;28;20379;-72
2021/10/16 07:49:13;;;;;;;12.60;8.35;;;;;;;11.19;84.75;99249.84;5011854;28;20021;-72
2021/10/16 07:51:38;;;;;;;13.65;8.30;;;;;;;11.46;82.47;99260.88;5008173;28;20427;-74
2021/10/16 07:54:03;;;;;;;13.55;8.07;;;;;;;11.56;81.73;99272.22;5008805;28;20040;-74
2021/10/16 07:56:29;;;;;;;12.52;8.32;;;;;;;11.63;81.48;99272.22;5012388;28;20022;-74
2021/10/16 07:58:54;;;;;;;15.82;9.10;;;;;;;11.56;81.60;99261.38;5012276;28;20025;-74
2021/10/16 08:01:20;;;;;;;14.63;9.73;;;;;;;11.26;84.08;99260.72;5012740;28;20088;-75
2021/10/16 08:03:45;;;;;;;14.93;9.13;;;;;;;11.06;85.41;99263.28;5011122;28;20025;-72
2021/10/16 08:06:11;;;;;;;13.98;9.15;;;;;;;11.24;86.10;99268.22;5010527;28;20075;-74
2021/10/16 08:08:36;;;;;;;13.75;8.57;;;;;;;11.31;84.91;99249.31;5011251;28;20022;-75
2021/10/16 08:11:02;;;;;;;12.70;8.50;;;;;;;11.37;85.15;99267.47;5021075;28;20026;-73
2021/10/16 08:13:29;;;;;;;12.05;7.78;;;;;;;11.54;85.09;99268.84;5022220;28;20030;-74
2021/10/16 08:15:55;;;;;;;13.48;8.57;;;;;;;11.69;84.30;99276.88;5002750;28;20019;-76
2021/10/16 08:18:20;;;;;;;13.65;9.57;;;;;;;11.47;84.18;99270.66;5012429;28;20348;-73
2021/10/16 08:20:46;;;;;;;17.10;8.73;;;;;;;12.05;83.10;99267.69;5012891;28;20487;-73
2021/10/16 08:23:12;;;;;;;18.08;10.18;;;;;;;12.15;82.13;99256.47;5012069;28;20029;-74
2021/10/16 08:25:37;;;;;;;17.58;10.68;;;;;;;12.18;82.26;99256.94;5001144;28;20034;-74
2021/10/16 08:28:13;;;;;;;26.00;14.07;;;;;;;12.09;82.45;99274.41;5008334;28;20033;-73
2021/10/16 08:30:44;;;;;;;24.42;14.10;;;;;;;11.90;82.90;99277.88;5008953;28;20022;-72
2021/10/16 08:33:09;;;;;;;23.25;13.55;;;;;;;11.77;84.84;99275.88;5011259;28;20030;-72
2021/10/16 08:35:35;;;;;;;23.83;14.15;;;;;;;11.86;84.53;99272.00;5010077;28;20022;-72
2021/10/16 08:38:00;;;;;;;26.02;14.35;;;;;;;11.86;84.55;99274.69;5015227;28;20030;-68
2021/10/16 08:40:26;;;;;;;23.40;13.95;;;;;;;11.94;84.26;99279.97;5015323;28;20025;-74
2021/10/16 08:42:53;;;;;;;25.25;13.55;;;;;;;12.15;83.16;99287.16;5015114;28;20025;-76
2021/10/16 08:45:18;;;;;;;25.90;14.30;;;;;;;11.80;82.38;99275.47;5008707;28;20395;-74
2021/10/16 08:47:45;;;;;;;30.45;14.18;;;;;;;11.82;82.93;99286.97;5027145;28;20026;-74
2021/10/16 08:50:11;;;;;;;27.38;14.18;;;;;;;12.04;83.24;99288.56;5009392;28;20112;-68
2021/10/16 08:52:38;;;;;;;27.90;13.98;;;;;;;12.03;82.69;99284.19;5016029;28;20518;-68
2021/10/16 08:55:04;;;;;;;24.10;13.18;;;;;;;12.01;82.60;99288.97;5015763;28;20022;-68
2021/10/16 08:57:35;;;;;;;24.23;13.57;;;;;;;11.99;82.94;99291.03;5014165;28;20036;-69
2021/10/16 09:00:35;;;;;;;24.40;13.27;;;;;;;12.08;82.14;99286.31;5011840;28;20049;-67
2021/10/16 09:03:25;;;;;;;22.52;13.07;;;;;;;12.45;80.73;99292.31;5001302;28;20095;-73
2021/10/16 09:05:58;;;;;;;25.48;14.02;;;;;;;12.62;78.49;99292.75;5015482;28;20030;-73
2021/10/16 09:08:33;;;;;;;24.20;13.65;;;;;;;12.83;78.10;99284.44;5012710;28;20058;-70
2021/10/16 09:11:24;;;;;;;25.95;14.35;;;;;;;13.33;77.21;99284.94;5014142;28;20026;-71
2021/10/16 09:13:52;;;;;;;22.73;13.63;;;;;;;13.46;76.32;99283.28;5014560;28;20022;-68
2021/10/16 09:16:24;;;;;;;23.42;13.60;;;;;;;13.52;75.91;99287.88;5012237;28;20034;-68
2021/10/16 09:19:02;;;;;;;22.33;12.65;;;;;;;13.47;73.93;99284.97;5011601;28;20113;-68
2021/10/16 09:21:29;;;;;;;24.33;13.98;;;;;;;13.18;74.70;99286.16;5008354;28;20084;-68
2021/10/16 09:24:03;;;;;;;25.67;14.52;;;;;;;13.05;76.98;99285.13;5009637;28;20080;-68
2021/10/16 09:26:30;;;;;;;24.30;13.98;;;;;;;13.06;76.42;99280.53;5008456;28;20022;-68
2021/10/16 09:28:58;;;;;;;25.48;13.35;;;;;;;13.26;75.02;99288.69;5014839;28;20061;-68
2021/10/16 09:31:31;;;;;;;22.38;12.80;;;;;;;13.87;73.04;99282.16;5015938;28;20022;-68
2021/10/16 09:33:57;;;;;;;23.95;14.10;;;;;;;13.87;73.29;99276.72;5006616;28;20437;-69
2021/10/16 09:36:24;;;;;;;21.30;12.65;;;;;;;14.40;72.29;99280.09;5012070;28;20097;-68
2021/10/16 09:38:51;;;;;;;23.17;12.50;;;;;;;14.61;71.01;99273.50;5011963;28;20033;-68
2021/10/16 09:41:35;;;;;;;21.63;12.90;;;;;;;14.24;71.08;99278.69;5019980;28;20111;-69
2021/10/16 09:44:02;;;;;;;22.50;12.20;;;;;;;14.51;69.92;99285.91;5022366;28;20026;-68
2021/10/16 09:46:27;;;;;;;24.23;12.25;;;;;;;14.69;68.28;99284.16;5025818;28;20030;-69
2021/10/16 09:48:52;;;;;;;21.30;11.50;;;;;;;15.53;65.44;99271.16;5026753;28;20057;-69
2021/10/16 09:51:20;;;;;;;23.10;13.38;;;;;;;15.96;62.89;99272.25;5028211;28;20160;-69
2021/10/16 09:53:47;;;;;;;20.80;12.85;;;;;;;15.97;63.49;99258.34;5026461;28;20034;-69
2021/10/16 09:56:14;;;;;;;21.75;12.32;;;;;;;15.42;64.86;99281.97;5026611;28;20048;-69
2021/10/16 09:58:41;;;;;;;21.75;12.30;;;;;;;15.43;65.53;99259.94;5039944;28;20109;-69
2021/10/16 10:01:09;;;;;;;22.35;12.02;;;;;;;15.53;65.34;99273.03;5026221;28;20396;-69
2021/10/16 10:03:42;;;;;;;23.98;12.50;;;;;;;14.61;68.27;99280.84;5027496;28;20064;-69
2021/10/16 10:06:13;;;;;;;20.42;12.70;;;;;;;14.84;68.14;99275.69;5014298;28;20394;-69
2021/10/16 10:08:39;;;;;;;21.58;12.80;;;;;;;14.68;68.82;99274.31;5013539;28;20511;-69
2021/10/16 10:11:06;;;;;;;22.70;12.70;;;;;;;14.60;69.48;99277.31;5008772;28;20076;-70
2021/10/16 10:13:34;;;;;;;19.00;11.68;;;;;;;15.03;68.35;99262.16;5011168;28;20029;-69
2021/10/16 10:16:00;;;;;;;22.93;13.10;;;;;;;15.13;67.61;99267.94;4999259;28;20044;-69
2021/10/16 10:21:09;;;;;;;19.73;11.75;;;;;;;15.51;67.00;99261.53;5008393;28;20138;-69
2021/10/16 10:23:35;;;;;;;22.70;13.82;;;;;;;15.47;66.14;99258.41;5013621;28;20050;-69
2021/10/16 10:26:23;;;;;;;21.80;12.52;;;;;;;15.47;66.19;99269.31;5012274;28;20472;-69
2021/10/16 10:29:00;;;;;;;20.08;12.23;;;;;;;15.47;66.03;99263.03;5012131;28;20399;-69
2021/10/16 10:31:50;;;;;;;18.90;12.07;;;;;;;15.25;66.92;99268.91;4995143;28;20041;-69
2021/10/16 10:34:21;;;;;;;21.38;12.98;;;;;;;14.95;66.98;99254.25;5003601;28;20040;-69
2021/10/16 10:36:50;;;;;;;22.45;13.55;;;;;;;15.03;67.32;99259.41;5013612;28;20104;-69
2021/10/16 10:39:34;;;;;;;21.90;13.73;;;;;;;15.65;65.29;99259.53;5013272;28;20030;-69
2021/10/16 10:42:00;;;;;;;22.15;12.25;;;;;;;17.28;60.37;99257.81;5015459;28;20030;-69
2021/10/16 10:44:46;;;;;;;19.52;12.30;;;;;;;18.87;56.04;99242.94;5020449;28;20037;-70
2021/10/16 10:47:24;;;;;;;20.33;10.52;;;;;;;20.84;50.53;99238.03;5025234;28;20076;-69
2021/10/16 10:49:51;;;;;;;17.73;11.55;;;;;;;21.94;46.88;99238.34;5020872;28;20037;-70
2021/10/16 10:52:17;;;;;;;15.57;10.25;;;;;;;23.47;43.58;99237.91;5022732;28;20021;-69
2021/10/16 10:55:13;;;;;;;15.48;10.13;;;;;;;24.75;40.59;99234.75;5018943;28;20424;-71
2021/10/16 10:57:45;;;;;;;17.40;11.65;;;;;;;22.14;44.79;99231.25;5010829;28;20026;-71
2021/10/16 11:00:11;;;;;;;17.15;11.82;;;;;;;20.17;48.90;99239.97;5010154;28;20025;-71
2021/10/16 11:02:38;;;;;;;19.52;12.65;;;;;;;18.37;53.70;99235.38;5020787;28;20037;-73
2021/10/16 11:05:34;;;;;;;17.52;11.77;;;;;;;17.39;57.51;99240.59;5026848;28;20030;-71
2021/10/16 11:08:08;;;;;;;18.15;12.15;;;;;;;16.71;59.60;99241.84;5019376;28;20029;-69
2021/10/16 11:10:34;;;;;;;19.70;12.50;;;;;;;16.44;60.10;99244.13;5020755;28;20025;-70
2021/10/16 11:13:13;;;;;;;18.58;12.18;;;;;;;16.26;61.34;99233.25;5029026;28;20077;-70
2021/10/16 11:15:43;;;;;;;22.45;13.07;;;;;;;16.01;62.21;99231.47;5023188;28;20518;-70
2021/10/16 11:18:09;;;;;;;;;;;;;;;15.64;63.94;99236.00;5011695;28;20029;-70
2021/10/16 11:20:35;;;;;;;18.40;12.00;;;;;;;15.36;64.50;99231.06;5020995;28;20045;-69
2021/10/16 11:23:00;;;;;;;19.92;11.32;;;;;;;15.21;65.13;99229.50;5005312;28;20047;-69
2021/10/16 11:25:29;;;;;;;18.55;11.35;;;;;;;15.10;65.94;99233.78;5021728;28;20033;-69